Time;durP1;ratioP1;P1;durP2;ratioP2;P2;SDS_P1;SDS_P2;PMS_P1;PMS_P2;Temp;Humidity;BMP_temperature;BMP_pressure;BME280_temperature;BME280_humidity;BME280_pressure;Samples;Min_cycle;Max_cycle;Signal;HPM_P1;HPM_P2
2022/12/17 13:08:23;;;;;;;81.45;42.08;;;;;;;1.02;69.66;102535.38;5024623;28;20207;-61
2022/12/17 13:10:50;;;;;;;59.05;29.75;;;;;;;1.45;79.89;102529.28;5020548;28;20371;-60
2022/12/17 13:13:19;;;;;;;86.28;43.22;;;;;;;1.20;71.25;102536.31;5024412;28;20052;-58
2022/12/17 13:16:00;;;;;;;83.28;41.58;;;;;;;1.20;70.01;102536.31;5030605;28;20041;-63
2022/12/17 13:18:35;;;;;;;84.47;43.15;;;;;;;1.17;70.03;102540.19;5018378;28;20433;-61
2022/12/17 13:21:14;;;;;;;76.05;38.72;;;;;;;1.12;69.95;102544.41;5024908;28;20033;-60
2022/12/17 13:23:40;;;;;;;78.78;39.83;;;;;;;1.07;69.23;102544.88;5033164;28;20031;-57
2022/12/17 13:26:29;;;;;;;79.85;41.22;;;;;;;1.01;69.63;102539.13;5017079;28;20030;-58
2022/12/17 13:28:54;;;;;;;82.47;40.47;;;;;;;0.93;69.59;102539.88;5028597;28;20037;-58
2022/12/17 13:31:29;;;;;;;93.65;45.80;;;;;;;0.95;69.95;102537.84;5023629;28;20109;-57
2022/12/17 13:34:10;;;;;;;91.97;47.00;;;;;;;0.93;69.92;102528.94;5023534;28;20396;-58
2022/12/17 13:36:48;;;;;;;84.60;44.45;;;;;;;0.98;69.57;102532.97;5019940;28;20053;-58
2022/12/17 13:39:46;;;;;;;80.35;41.20;;;;;;;1.00;69.42;102535.53;5009138;28;20094;-58
2022/12/17 13:42:27;;;;;;;85.22;41.03;;;;;;;1.01;69.15;102526.31;5026666;28;20045;-58
2022/12/17 13:44:56;;;;;;;82.55;40.17;;;;;;;0.95;68.99;102532.38;5041909;28;20064;-58
2022/12/17 13:47:29;;;;;;;78.65;39.30;;;;;;;0.96;69.64;102532.22;5023421;28;20472;-58
2022/12/17 13:49:55;;;;;;;;;;;;;;;1.11;69.94;102527.16;5022386;28;20033;-58
2022/12/17 13:52:24;;;;;;;81.65;38.88;;;;;;;0.94;69.76;102530.63;5038533;28;19942;-57
2022/12/17 13:54:50;;;;;;;80.07;40.40;;;;;;;0.98;68.99;102537.53;5028459;28;20033;-59
2022/12/17 13:57:23;;;;;;;81.35;41.88;;;;;;;0.93;69.09;102528.94;5029955;28;20034;-57
2022/12/17 14:00:01;;;;;;;83.60;40.35;;;;;;;0.99;69.61;102525.63;5024484;28;20083;-57
2022/12/17 14:02:28;;;;;;;85.15;40.17;;;;;;;0.98;69.08;102535.69;5041760;28;20029;-57
2022/12/17 14:04:56;;;;;;;90.93;45.42;;;;;;;0.95;68.96;102543.31;5032792;28;20056;-57
2022/12/17 14:07:26;;;;;;;78.15;39.20;;;;;;;0.94;69.45;102533.38;5039726;28;20029;-57
2022/12/17 14:09:53;;;;;;;82.95;39.70;;;;;;;0.91;68.97;102536.44;5032242;28;20075;-57
2022/12/17 14:12:23;;;;;;;80.85;38.95;;;;;;;0.93;69.13;102534.41;5023589;28;20568;-58
2022/12/17 14:14:51;;;;;;;79.05;39.90;;;;;;;0.90;69.21;102531.94;5042875;28;20040;-58
2022/12/17 14:17:28;;;;;;;86.85;43.28;;;;;;;0.88;69.04;102531.25;5020158;28;20109;-59
2022/12/17 14:20:15;;;;;;;79.40;40.05;;;;;;;0.93;69.12;102537.97;5015595;28;20030;-59
2022/12/17 14:22:43;;;;;;;78.40;38.55;;;;;;;0.87;68.77;102545.94;5026927;28;20785;-59
2022/12/17 14:25:36;;;;;;;74.88;36.30;;;;;;;0.94;68.74;102545.19;5028362;28;20024;-58
2022/12/17 14:28:22;;;;;;;80.63;38.35;;;;;;;0.92;69.42;102536.28;5026761;28;20500;-59
2022/12/17 14:30:47;;;;;;;79.25;40.28;;;;;;;0.88;68.82;102550.38;5027841;28;20140;-58
2022/12/17 14:33:29;;;;;;;85.70;42.08;;;;;;;0.92;69.01;102547.22;5028490;28;20040;-58
2022/12/17 14:36:05;;;;;;;83.80;39.42;;;;;;;0.91;69.43;102550.09;5024588;28;20040;-58
2022/12/17 14:38:30;;;;;;;84.63;41.08;;;;;;;0.86;68.94;102552.41;5025160;28;20392;-60
2022/12/17 14:42:24;;;;;;;87.15;39.78;;;;;;;0.83;68.71;102550.84;5026662;28;20785;-58
2022/12/17 14:43:56;;;;;;;88.53;40.55;;;;;;;0.85;69.06;102554.28;5024390;28;20124;-58
2022/12/17 14:46:21;;;;;;;82.10;39.65;;;;;;;0.83;69.10;102552.72;5027366;28;20072;-58
2022/12/17 14:49:00;;;;;;;82.65;39.00;;;;;;;0.83;69.35;102560.91;5023556;28;20537;-58
2022/12/17 14:51:32;;;;;;;83.38;39.47;;;;;;;0.81;69.46;102563.78;5034851;28;20067;-58
2022/12/17 14:54:20;;;;;;;83.53;39.35;;;;;;;0.85;69.45;102564.34;5029237;28;20093;-57
2022/12/17 14:56:54;;;;;;;82.32;39.65;;;;;;;0.80;68.69;102563.94;5035346;28;20025;-59
2022/12/17 14:59:28;;;;;;;79.03;38.00;;;;;;;0.76;69.35;102563.38;5028422;28;20060;-58
2022/12/17 15:01:54;;;;;;;83.43;41.55;;;;;;;0.70;68.72;102564.78;5029107;28;20041;-58
2022/12/17 15:04:20;;;;;;;86.95;40.90;;;;;;;0.71;69.18;102574.75;5024000;28;20038;-59
2022/12/17 15:06:46;;;;;;;80.75;43.30;;;;;;;0.68;69.29;102575.03;5026530;28;20507;-59
2022/12/17 15:09:12;;;;;;;82.55;40.03;;;;;;;0.69;69.45;102570.41;5028180;28;20025;-59
2022/12/17 15:11:38;;;;;;;84.03;40.67;;;;;;;0.65;69.27;102569.00;5030089;28;20029;-58
2022/12/17 15:14:09;;;;;;;90.88;44.38;;;;;;;0.67;69.03;102572.44;5036727;28;20036;-59
2022/12/17 15:16:34;;;;;;;85.15;41.92;;;;;;;0.70;70.03;102577.59;5034922;28;20502;-59
2022/12/17 15:19:00;;;;;;;84.72;40.67;;;;;;;0.74;69.86;102584.50;5048799;28;20029;-59
2022/12/17 15:21:25;;;;;;;93.55;43.38;;;;;;;0.73;68.83;102589.09;5028844;28;20044;-59
2022/12/17 15:23:51;;;;;;;92.03;43.85;;;;;;;0.72;69.79;102597.47;5027578;28;20037;-58
2022/12/17 15:26:17;;;;;;;86.22;39.92;;;;;;;0.68;69.50;102593.28;5026525;28;20453;-59
2022/12/17 15:28:44;;;;;;;85.65;40.20;;;;;;;0.69;69.16;102600.47;5025680;28;20069;-59
2022/12/17 15:31:12;;;;;;;84.93;39.22;;;;;;;0.68;69.87;102602.34;5029054;28;20064;-59
2022/12/17 15:33:37;;;;;;;87.07;41.03;;;;;;;0.70;69.53;102600.31;5029304;28;20021;-58
2022/12/17 15:36:03;;;;;;;84.78;40.25;;;;;;;0.65;69.10;102599.91;5023920;28;20954;-59
2022/12/17 15:38:28;;;;;;;91.45;41.65;;;;;;;0.59;69.43;102605.97;5027401;28;20033;-59
2022/12/17 15:40:54;;;;;;;89.07;41.38;;;;;;;0.60;69.73;102604.94;5016320;28;20045;-58
2022/12/17 15:43:19;;;;;;;85.65;40.33;;;;;;;0.61;69.76;102612.13;5025855;28;20485;-58
2022/12/17 15:45:44;;;;;;;91.57;43.15;;;;;;;0.66;69.88;102609.81;5024340;28;20086;-60
2022/12/17 15:48:19;;;;;;;86.90;40.40;;;;;;;0.67;69.92;102611.56;5024838;28;20322;-58
2022/12/17 15:50:45;;;;;;;86.93;39.88;;;;;;;0.67;69.59;102614.31;5026038;28;20037;-59
2022/12/17 15:53:11;;;;;;;85.28;40.53;;;;;;;0.64;70.02;102611.84;5027874;28;20470;-59
2022/12/17 15:55:37;;;;;;;89.47;41.53;;;;;;;0.64;70.26;102617.31;5026835;28;20028;-59
2022/12/17 15:58:04;;;;;;;91.07;42.45;;;;;;;0.64;70.01;102616.47;5024722;28;20417;-59
2022/12/17 16:00:29;;;;;;;87.82;41.15;;;;;;;0.65;70.22;102624.50;5020182;28;20028;-59
2022/12/17 16:02:55;;;;;;;88.03;42.13;;;;;;;0.63;69.51;102626.53;5028501;28;20037;-58
2022/12/17 16:05:21;;;;;;;96.53;43.58;;;;;;;0.65;69.79;102634.56;5039271;28;20550;-58
2022/12/17 16:07:46;;;;;;;92.43;43.22;;;;;;;0.65;69.27;102631.84;5031896;28;20029;-59
2022/12/17 16:10:13;;;;;;;90.50;42.05;;;;;;;0.65;69.89;102629.97;5022824;28;20123;-58
2022/12/17 16:12:38;;;;;;;96.30;45.28;;;;;;;0.64;69.24;102630.13;5031289;28;20034;-58
2022/12/17 16:15:05;;;;;;;101.60;48.20;;;;;;;0.58;70.01;102617.88;5043457;28;20052;-59
2022/12/17 16:17:31;;;;;;;92.28;43.28;;;;;;;0.55;69.64;102620.03;5043952;28;20040;-59
2022/12/17 16:19:56;;;;;;;89.57;41.95;;;;;;;0.53;69.54;102628.38;5034984;28;20042;-59
2022/12/17 16:22:21;;;;;;;84.70;40.70;;;;;;;0.50;70.09;102620.47;5040808;28;20086;-59
2022/12/17 16:24:47;;;;;;;85.10;40.85;;;;;;;0.51;69.13;102621.34;5041409;28;20498;-60
2022/12/17 16:27:13;;;;;;;85.88;41.78;;;;;;;0.46;69.70;102625.34;5030814;28;20022;-59
2022/12/17 16:29:39;;;;;;;83.68;41.83;;;;;;;0.43;69.57;102619.31;5026470;28;20156;-59
2022/12/17 16:32:04;;;;;;;92.57;44.03;;;;;;;0.46;69.88;102621.78;5024413;28;20049;-59
2022/12/17 16:34:29;;;;;;;95.20;47.83;;;;;;;0.49;69.84;102624.22;5038034;28;20029;-58
2022/12/17 16:36:55;;;;;;;96.97;45.72;;;;;;;0.53;69.79;102636.59;5025990;28;20147;-59
2022/12/17 16:39:20;;;;;;;90.97;41.90;;;;;;;0.50;69.52;102628.66;5027554;28;20029;-59
2022/12/17 16:41:46;;;;;;;87.80;40.70;;;;;;;0.54;69.41;102623.78;5027620;28;20064;-59
2022/12/17 16:44:11;;;;;;;90.80;42.97;;;;;;;0.52;69.52;102623.94;5016904;28;20465;-58
2022/12/17 16:46:39;;;;;;;88.55;39.72;;;;;;;0.50;69.43;102628.66;5031870;28;20021;-58
2022/12/17 16:49:08;;;;;;;91.03;40.50;;;;;;;0.52;69.61;102629.41;5034695;28;20033;-58
2022/12/17 16:51:34;;;;;;;90.90;41.53;;;;;;;0.48;69.83;102620.63;5029691;28;20646;-58
2022/12/17 16:54:13;;;;;;;91.35;42.72;;;;;;;0.48;69.33;102634.28;5031399;28;20091;-58
2022/12/17 16:56:39;;;;;;;93.32;41.92;;;;;;;0.45;69.33;102633.72;5038096;28;20595;-58
2022/12/17 16:59:07;;;;;;;86.47;39.97;;;;;;;0.48;69.37;102649.81;5027778;28;20034;-58
2022/12/17 17:01:33;;;;;;;86.70;39.13;;;;;;;0.49;68.55;102640.63;5025028;28;20037;-59
2022/12/17 17:03:58;;;;;;;82.97;38.70;;;;;;;0.42;68.42;102631.25;5033393;28;20038;-58
2022/12/17 17:06:24;;;;;;;91.20;40.95;;;;;;;0.36;68.61;102631.84;5040899;28;20051;-58
2022/12/17 17:08:50;;;;;;;82.60;39.67;;;;;;;0.34;68.38;102625.66;5035459;28;20029;-59
2022/12/17 17:11:20;;;;;;;89.13;40.45;;;;;;;0.27;68.85;102630.81;5030327;28;20039;-58
2022/12/17 17:13:48;;;;;;;83.35;39.38;;;;;;;0.32;69.10;102638.59;5020537;28;20044;-58
2022/12/17 17:16:13;;;;;;;90.57;42.38;;;;;;;0.32;68.74;102636.72;5021885;28;20641;-58
2022/12/17 17:18:39;;;;;;;79.82;36.97;;;;;;;0.24;68.97;102642.91;5040111;28;20040;-58
2022/12/17 17:21:19;;;;;;;84.50;37.47;;;;;;;0.22;68.51;102644.88;5036596;28;20029;-59
2022/12/17 17:23:50;;;;;;;85.32;38.13;;;;;;;0.18;69.03;102653.50;5017785;28;20046;-59
2022/12/17 17:26:16;;;;;;;92.78;40.05;;;;;;;0.14;68.96;102652.06;5045752;28;20048;-59
2022/12/17 17:28:43;;;;;;;88.15;40.50;;;;;;;0.11;69.47;102652.34;5043366;28;20037;-59
2022/12/17 17:31:11;;;;;;;88.05;40.22;;;;;;;0.11;69.17;102655.06;5034179;28;20033;-59
2022/12/17 17:33:39;;;;;;;87.63;39.78;;;;;;;0.12;69.05;102651.34;5024150;28;20211;-58
2022/12/17 17:36:17;;;;;;;87.55;40.78;;;;;;;0.08;68.93;102655.34;5103031;27;20128;-58
2022/12/17 17:38:43;;;;;;;81.88;37.25;;;;;;;0.03;68.95;102665.84;5085547;28;20425;-59
2022/12/17 17:41:11;;;;;;;95.82;41.85;;;;;;;0.05;68.94;102667.44;5080678;28;20024;-58
2022/12/17 17:43:37;;;;;;;97.00;43.00;;;;;;;0.02;69.36;102664.97;5085291;28;20036;-58
2022/12/17 17:46:14;;;;;;;95.93;40.78;;;;;;;-0.02;68.92;102655.34;5081949;28;20043;-58
2022/12/17 17:48:41;;;;;;;90.28;41.05;;;;;;;-0.08;69.14;102662.22;5081123;28;20031;-59
2022/12/17 17:51:18;;;;;;;98.22;41.15;;;;;;;-0.08;69.86;102664.06;5076955;28;20118;-58
2022/12/17 17:53:46;;;;;;;89.93;40.35;;;;;;;-0.08;69.44;102662.22;5084154;28;20552;-58
2022/12/17 17:56:14;;;;;;;85.88;38.53;;;;;;;-0.08;69.25;102666.81;5080406;28;20396;-59
2022/12/17 17:58:45;;;;;;;90.05;41.20;;;;;;;-0.12;69.05;102665.34;5084281;28;20028;-58
2022/12/17 18:01:14;;;;;;;88.78;40.70;;;;;;;-0.08;69.03;102662.22;5080833;28;20056;-58
2022/12/17 18:03:39;;;;;;;100.07;43.53;;;;;;;-0.07;69.09;102660.34;5083074;28;20028;-58
2022/12/17 18:06:06;;;;;;;92.95;41.65;;;;;;;-0.08;68.95;102662.22;5078084;28;20600;-58
2022/12/17 18:08:33;;;;;;;96.65;42.13;;;;;;;-0.07;69.31;102660.34;5080489;28;20074;-59
2022/12/17 18:10:59;;;;;;;97.78;43.55;;;;;;;-0.08;69.02;102659.50;5081638;28;20032;-59
2022/12/17 18:16:10;;;;;;;93.93;40.53;;;;;;;-0.04;68.69;102660.06;5082129;28;20051;-59
2022/12/17 18:18:36;;;;;;;98.70;44.97;;;;;;;-0.04;68.76;102660.06;5082427;28;20033;-59
2022/12/17 18:21:06;;;;;;;96.45;42.72;;;;;;;-0.03;69.32;102664.53;5083315;28;20036;-59
2022/12/17 18:23:32;;;;;;;102.15;44.88;;;;;;;0.01;69.07;102662.41;5073240;28;20126;-59
2022/12/17 18:26:09;;;;;;;94.85;42.97;;;;;;;0.05;69.32;102667.44;5078807;28;20048;-58
2022/12/17 18:28:35;;;;;;;100.10;44.22;;;;;;;0.04;68.94;102678.47;5078774;28;20040;-58
2022/12/17 18:31:13;;;;;;;95.63;42.63;;;;;;;0.07;69.01;102657.22;5082623;28;20032;-58
2022/12/17 18:33:41;;;;;;;96.63;43.15;;;;;;;0.03;68.52;102665.84;5081877;28;20115;-58
2022/12/17 18:36:09;;;;;;;96.55;43.00;;;;;;;0.03;68.65;102661.22;5102155;28;20055;-58
2022/12/17 18:38:34;;;;;;;94.35;41.53;;;;;;;0.08;68.69;102656.25;5096571;28;20038;-58
2022/12/17 18:43:56;;;;;;;85.28;37.55;;;;;;;0.10;67.65;102662.41;5100411;28;20081;-58
2022/12/17 18:46:21;;;;;;;86.72;38.45;;;;;;;0.08;68.20;102667.16;5093557;28;20115;-57
2022/12/17 18:48:46;;;;;;;76.38;35.30;;;;;;;0.07;67.72;102667.28;5083052;28;20558;-57
2022/12/17 18:51:12;;;;;;;83.30;36.90;;;;;;;0.02;68.13;102662.25;5084155;28;20074;-58
2022/12/17 18:53:37;;;;;;;82.82;37.33;;;;;;;-0.01;68.25;102657.06;5086682;28;20479;-58
2022/12/17 18:56:09;;;;;;;87.20;38.97;;;;;;;-0.02;68.06;102658.06;5086802;28;20048;-58
2022/12/17 18:58:37;;;;;;;78.47;37.17;;;;;;;-0.02;68.30;102667.13;5076494;28;20483;-58
2022/12/17 19:01:04;;;;;;;88.78;39.22;;;;;;;-0.06;68.30;102673.84;5086615;28;20043;-58
2022/12/17 19:03:30;;;;;;;89.85;40.33;;;;;;;-0.03;68.38;102670.00;5088235;28;20039;-58
2022/12/17 19:05:56;;;;;;;80.65;37.55;;;;;;;-0.09;68.63;102676.00;5088564;28;20051;-57
2022/12/17 19:08:21;;;;;;;83.25;39.97;;;;;;;-0.07;68.70;102674.88;5086256;28;20043;-57
2022/12/17 19:10:46;;;;;;;86.47;39.60;;;;;;;-0.07;68.26;102671.28;5086386;28;20407;-57
2022/12/17 19:13:12;;;;;;;78.35;36.65;;;;;;;-0.07;67.96;102671.28;5081805;28;20036;-57
2022/12/17 19:15:37;;;;;;;82.10;36.70;;;;;;;-0.13;68.26;102680.88;5076428;28;20036;-58
2022/12/17 19:18:02;;;;;;;74.88;36.42;;;;;;;-0.13;68.12;102678.13;5086347;28;20040;-57
2022/12/17 19:20:28;;;;;;;81.22;36.75;;;;;;;-0.13;67.96;102686.31;5086319;28;20039;-57
2022/12/17 19:22:53;;;;;;;79.40;36.42;;;;;;;-0.15;68.14;102691.06;5088422;28;20036;-58
2022/12/17 19:25:18;;;;;;;73.53;35.13;;;;;;;-0.14;68.07;102700.97;5084830;28;20092;-58
2022/12/17 19:27:43;;;;;;;71.88;34.65;;;;;;;-0.18;68.24;102698.66;5088752;28;20036;-58
2022/12/17 19:30:10;;;;;;;76.95;36.85;;;;;;;-0.19;68.26;102694.22;5086623;28;20056;-58
2022/12/17 19:32:38;;;;;;;72.00;35.13;;;;;;;-0.17;68.36;102700.38;5085785;28;20499;-58
2022/12/17 19:35:03;;;;;;;69.28;34.10;;;;;;;-0.17;67.64;102708.56;5085814;28;20059;-57
2022/12/17 19:37:29;;;;;;;74.97;35.63;;;;;;;-0.28;67.89;102704.94;5084703;28;20024;-58
2022/12/17 19:39:54;;;;;;;73.43;34.85;;;;;;;-0.27;68.24;102714.00;5088973;28;20085;-58
2022/12/17 19:42:26;;;;;;;73.93;35.47;;;;;;;-0.26;68.33;102702.94;5088031;28;20066;-58
2022/12/17 19:44:53;;;;;;;74.57;35.25;;;;;;;-0.26;67.84;102700.22;5087872;28;20039;-58
2022/12/17 19:47:19;;;;;;;75.90;35.33;;;;;;;-0.32;68.23;102697.16;5083490;28;20030;-58
2022/12/17 19:49:44;;;;;;;78.13;36.72;;;;;;;-0.32;68.04;102698.03;5084143;28;20032;-58
2022/12/17 19:52:10;;;;;;;79.55;39.53;;;;;;;-0.32;68.62;102695.28;5086889;28;20041;-58
2022/12/17 19:54:35;;;;;;;82.22;37.92;;;;;;;-0.31;68.40;102694.31;5083796;28;20024;-59
2022/12/17 19:57:00;;;;;;;87.30;38.60;;;;;;;-0.31;68.38;102696.19;5085494;28;20043;-58
2022/12/17 19:59:27;;;;;;;90.38;41.67;;;;;;;-0.31;68.22;102701.63;5086345;28;20391;-59
2022/12/17 20:01:55;;;;;;;85.57;40.72;;;;;;;-0.30;68.79;102697.91;5084083;28;20069;-59
2022/12/17 20:04:20;;;;;;;85.10;40.47;;;;;;;-0.23;68.89;102700.97;5078619;28;20056;-58
2022/12/17 20:06:46;;;;;;;89.85;40.20;;;;;;;-0.21;68.67;102701.66;5078104;28;20159;-58
2022/12/17 20:09:12;;;;;;;87.93;41.00;;;;;;;-0.22;68.64;102708.13;5084706;28;20031;-57
2022/12/17 20:11:38;;;;;;;80.25;38.53;;;;;;;-0.22;68.41;102714.44;5086817;28;20035;-58
2022/12/17 20:14:09;;;;;;;79.45;37.85;;;;;;;-0.28;67.98;102717.72;5087975;28;20028;-57
2022/12/17 20:16:43;;;;;;;80.00;36.58;;;;;;;-0.28;68.75;102729.50;5084785;28;20035;-58
2022/12/17 20:19:14;;;;;;;77.72;38.00;;;;;;;-0.23;68.47;102730.97;5080130;28;20032;-58
2022/12/17 20:21:40;;;;;;;78.43;36.78;;;;;;;-0.21;68.12;102729.81;5082706;28;20043;-58
2022/12/17 20:24:06;;;;;;;72.78;33.88;;;;;;;-0.21;68.30;102734.41;5080337;28;20921;-58
2022/12/17 20:26:31;;;;;;;71.55;34.58;;;;;;;-0.22;68.19;102735.44;5087841;28;20510;-58
2022/12/17 20:28:58;;;;;;;71.70;34.22;;;;;;;-0.23;68.16;102733.72;5087808;28;20024;-58
2022/12/17 20:31:23;;;;;;;73.63;35.40;;;;;;;-0.34;68.12;102719.13;5078843;28;20042;-58
2022/12/17 20:33:49;;;;;;;71.75;34.60;;;;;;;-0.36;68.62;102723.84;5078493;28;20028;-59
2022/12/17 20:36:16;;;;;;;73.75;36.83;;;;;;;-0.32;68.27;102717.13;5086293;28;20066;-58
2022/12/17 20:38:42;;;;;;;75.78;37.63;;;;;;;-0.28;68.31;102718.56;5077226;28;20440;-59
2022/12/17 20:41:09;;;;;;;71.25;33.65;;;;;;;-0.27;67.59;102712.13;5079719;28;20510;-59
2022/12/17 20:43:34;;;;;;;71.32;36.10;;;;;;;-0.32;67.94;102711.66;5067891;28;20017;-59
2022/12/17 20:46:00;;;;;;;77.45;38.00;;;;;;;-0.34;68.18;102704.63;5085426;28;20055;-58
2022/12/17 20:48:26;;;;;;;75.57;37.47;;;;;;;-0.34;67.73;102710.94;5085690;28;20031;-59
2022/12/17 20:50:51;;;;;;;73.25;35.78;;;;;;;-0.30;67.86;102708.81;5081480;28;20038;-59
2022/12/17 20:53:17;;;;;;;73.65;36.15;;;;;;;-0.30;67.87;102708.81;5086534;28;20020;-58
2022/12/17 20:55:42;;;;;;;75.90;36.38;;;;;;;-0.27;67.79;102708.56;5087413;28;20030;-58
2022/12/17 20:58:07;;;;;;;71.70;34.08;;;;;;;-0.25;67.71;102707.38;5084740;28;20486;-58
2022/12/17 21:00:33;;;;;;;72.88;35.75;;;;;;;-0.28;68.08;102704.94;5080892;28;20033;-58
2022/12/17 21:02:59;;;;;;;70.15;33.72;;;;;;;-0.27;67.39;102711.28;5082616;28;20861;-58
2022/12/17 21:05:25;;;;;;;71.65;37.10;;;;;;;-0.26;67.33;102710.28;5084399;28;20811;-58
2022/12/17 21:07:51;;;;;;;76.43;36.47;;;;;;;-0.26;67.35;102716.59;5086059;28;20028;-59
2022/12/17 21:10:17;;;;;;;71.00;36.97;;;;;;;-0.23;67.68;102717.34;5084974;28;20040;-59
2022/12/17 21:15:26;;;;;;;66.60;34.88;;;;;;;-0.29;68.14;102710.53;5081536;28;20092;-58
2022/12/17 21:17:52;;;;;;;69.43;33.33;;;;;;;-0.27;67.57;102709.41;5083488;28;20036;-58
2022/12/17 21:20:17;;;;;;;69.10;34.47;;;;;;;-0.29;67.52;102711.41;5085705;28;20047;-57
2022/12/17 21:22:42;;;;;;;67.50;33.60;;;;;;;-0.30;67.41;102720.59;5086420;28;20040;-58
2022/12/17 21:25:08;;;;;;;68.97;34.22;;;;;;;-0.36;67.06;102720.25;5087198;28;20028;-58
2022/12/17 21:27:33;;;;;;;68.20;34.75;;;;;;;-0.37;67.91;102718.53;5087249;28;20035;-58
2022/12/17 21:29:59;;;;;;;66.97;33.50;;;;;;;-0.41;67.58;102715.22;5084952;28;20032;-59
2022/12/17 21:32:25;;;;;;;68.57;33.33;;;;;;;-0.43;67.53;102733.59;5084009;28;20118;-58
2022/12/17 21:34:50;;;;;;;66.57;32.95;;;;;;;-0.45;67.46;102732.00;5081355;28;20044;-58
2022/12/17 21:37:15;;;;;;;66.03;33.45;;;;;;;-0.45;67.64;102727.41;5083639;28;20031;-58
2022/12/17 21:39:41;;;;;;;68.65;33.50;;;;;;;-0.45;67.51;102729.25;5087041;28;20024;-58
2022/12/17 21:44:50;;;;;;;63.58;33.35;;;;;;;-0.42;67.92;102718.94;5087069;28;20050;-58
2022/12/17 21:47:15;;;;;;;65.68;32.90;;;;;;;-0.39;67.52;102732.34;5084700;28;20111;-59
2022/12/17 21:49:40;;;;;;;72.43;34.45;;;;;;;-0.40;67.26;102733.31;5086865;28;20043;-58
2022/12/17 21:52:06;;;;;;;63.90;31.65;;;;;;;-0.42;67.60;102735.31;5083062;28;20445;-58
2022/12/17 21:54:34;;;;;;;62.00;32.30;;;;;;;-0.41;67.48;102731.59;5067288;28;20028;-58
2022/12/17 21:56:59;;;;;;;64.40;32.90;;;;;;;-0.42;67.33;102726.28;5085630;28;20039;-58
2022/12/17 21:59:24;;;;;;;63.25;34.25;;;;;;;-0.40;67.44;102733.31;5085821;28;20036;-58
2022/12/17 22:01:51;;;;;;;62.67;32.47;;;;;;;-0.37;67.38;102737.63;5083792;28;20034;-58
2022/12/17 22:04:16;;;;;;;61.85;31.67;;;;;;;-0.42;67.21;102743.50;5085811;28;20109;-58
2022/12/17 22:06:42;;;;;;;61.58;31.60;;;;;;;-0.43;66.97;102741.78;5084565;28;20114;-58
2022/12/17 22:09:11;;;;;;;60.70;31.35;;;;;;;-0.43;66.81;102744.50;5084153;28;20024;-58
2022/12/17 22:11:39;;;;;;;66.25;31.58;;;;;;;-0.44;67.20;102741.91;5075482;28;20032;-58
2022/12/17 22:14:05;;;;;;;64.00;32.70;;;;;;;-0.47;66.61;102745.78;5081325;28;20585;-58
2022/12/17 22:16:33;;;;;;;64.03;31.85;;;;;;;-0.48;66.80;102754.94;5072427;28;20046;-58
2022/12/17 22:19:00;;;;;;;61.10;31.23;;;;;;;-0.50;66.67;102765.13;5086044;28;20177;-58
2022/12/17 22:21:25;;;;;;;59.83;31.67;;;;;;;-0.51;66.92;102767.00;5088073;28;20035;-57
2022/12/17 22:23:51;;;;;;;61.90;31.77;;;;;;;-0.48;66.83;102765.00;5083853;28;20031;-57
2022/12/17 22:26:18;;;;;;;59.78;32.35;;;;;;;-0.50;66.24;102770.59;5087392;28;20032;-58
2022/12/17 22:28:47;;;;;;;58.88;30.20;;;;;;;-0.52;66.26;102765.25;5076806;28;20028;-58
2022/12/17 22:33:57;;;;;;;59.50;31.30;;;;;;;-0.57;66.37;102770.25;5085809;28;20038;-58
2022/12/17 22:36:24;;;;;;;52.80;29.77;;;;;;;-0.58;66.20;102762.22;5088187;28;20032;-58
2022/12/17 22:38:49;;;;;;;58.10;30.67;;;;;;;-0.60;66.14;102756.00;5086539;28;20031;-57
2022/12/17 22:43:28;;;;;;;52.70;29.42;;;;;;;-0.61;66.38;102759.75;5089885;28;20391;-57
2022/12/17 22:44:00;;;;;;;53.40;30.75;;;;;;;-0.64;66.24;102760.00;5081300;28;20075;-57
2022/12/17 22:46:26;;;;;;;55.80;30.65;;;;;;;-0.65;66.31;102752.84;5082137;28;20070;-57
2022/12/17 22:48:51;;;;;;;54.47;29.05;;;;;;;-0.69;66.11;102746.78;5088236;28;20115;-58
2022/12/17 22:51:17;;;;;;;55.95;30.48;;;;;;;-0.67;66.36;102749.34;5081639;28;20800;-57
2022/12/17 22:53:42;;;;;;;51.22;29.55;;;;;;;-0.68;65.78;102744.91;5087776;28;20782;-58
2022/12/17 22:56:11;;;;;;;55.72;30.52;;;;;;;-0.67;65.76;102749.34;5083528;28;20402;-57
2022/12/17 22:58:36;;;;;;;58.58;30.77;;;;;;;-0.69;65.67;102752.22;5087030;28;20040;-57
2022/12/17 23:01:03;;;;;;;57.33;30.92;;;;;;;-0.71;65.51;102750.63;5080714;28;20040;-57
2022/12/17 23:03:28;;;;;;;55.40;29.85;;;;;;;-0.70;65.45;102755.09;5089972;28;20034;-57
2022/12/17 23:06:12;;;;;;;54.65;29.85;;;;;;;-0.68;65.73;102770.31;5085337;28;20024;-57
2022/12/17 23:08:38;;;;;;;52.65;29.50;;;;;;;-0.75;65.51;102766.38;5067998;28;20028;-57
2022/12/17 23:11:09;;;;;;;56.97;30.20;;;;;;;-0.78;65.46;102762.06;5076247;28;20028;-58
2022/12/17 23:13:34;;;;;;;57.38;29.20;;;;;;;-0.80;65.03;102755.88;5087935;28;20063;-57
2022/12/17 23:16:00;;;;;;;57.78;30.98;;;;;;;-0.82;65.12;102733.34;5089244;28;20742;-57
2022/12/17 23:18:25;;;;;;;57.08;30.55;;;;;;;-0.84;64.84;102731.75;5084703;28;20028;-58
2022/12/17 23:20:50;;;;;;;54.55;29.63;;;;;;;-0.86;65.09;102717.38;5083373;28;20054;-58
2022/12/17 23:23:15;;;;;;;53.30;30.52;;;;;;;-0.90;64.99;102722.25;5089266;28;20090;-57
2022/12/17 23:25:41;;;;;;;53.05;28.48;;;;;;;-0.89;65.00;102725.81;5079124;28;20157;-58
2022/12/17 23:28:06;;;;;;;53.92;29.38;;;;;;;-0.91;64.83;102731.38;5077916;28;20038;-58
2022/12/17 23:30:31;;;;;;;56.03;29.85;;;;;;;-0.93;64.65;102733.41;5089086;28;20024;-58
2022/12/17 23:32:57;;;;;;;56.85;30.45;;;;;;;-0.95;64.70;102734.50;5085326;28;20040;-58
2022/12/17 23:35:22;;;;;;;54.13;29.48;;;;;;;-0.97;64.31;102731.06;5083427;28;20680;-58
2022/12/17 23:37:48;;;;;;;55.28;29.00;;;;;;;-1.02;64.58;102735.06;5084131;28;20024;-58
2022/12/17 23:40:14;;;;;;;58.83;30.95;;;;;;;-1.06;64.38;102743.59;5086850;28;20504;-58
2022/12/17 23:42:40;;;;;;;55.90;29.33;;;;;;;-1.10;64.54;102732.13;5088011;28;20036;-58
2022/12/17 23:45:07;;;;;;;55.92;31.05;;;;;;;-1.09;64.64;102744.75;5084344;28;20039;-57
2022/12/17 23:47:32;;;;;;;54.92;29.42;;;;;;;-1.08;64.36;102738.28;5076992;28;20024;-58
2022/12/17 23:49:58;;;;;;;56.55;28.83;;;;;;;-1.10;63.74;102736.69;5079813;28;20031;-58
2022/12/17 23:52:23;;;;;;;55.63;29.13;;;;;;;-1.15;63.92;102733.50;5087342;28;20039;-58
2022/12/17 23:54:48;;;;;;;57.00;30.00;;;;;;;-1.21;64.08;102747.66;5088991;28;20032;-58
2022/12/17 23:57:14;;;;;;;55.85;30.30;;;;;;;-1.24;64.19;102749.63;5090248;28;20432;-57
2022/12/17 23:59:39;;;;;;;56.67;31.08;;;;;;;-1.23;64.12;102751.34;5090386;28;20028;-60
